Time;durP1;ratioP1;P1;durP2;ratioP2;P2;SDS_P1;SDS_P2;PMS_P1;PMS_P2;Temp;Humidity;BMP_temperature;BMP_pressure;BME280_temperature;BME280_humidity;BME280_pressure;Samples;Min_cycle;Max_cycle;Signal;HPM_P1;HPM_P2
2023/10/09 00:02:19;;;;;;;11.50;3.95;;;14.80;76.70;;;;;;9171081;19;20019;-68
2023/10/09 00:05:38;;;;;;;11.15;4.13;;;14.80;76.80;;;;;;9167199;19;20010;-64
2023/10/09 00:08:50;;;;;;;15.85;4.15;;;14.80;76.80;;;;;;9171035;19;20759;-68
2023/10/09 00:12:00;;;;;;;;;;;14.80;76.90;;;;;;9168962;19;20496;-65
2023/10/09 00:15:11;;;;;;;9.38;4.80;;;14.80;76.80;;;;;;9170845;19;19918;-65
2023/10/09 00:18:23;;;;;;;11.45;4.63;;;14.80;76.90;;;;;;9171052;19;20028;-65
2023/10/09 00:21:34;;;;;;;15.32;4.93;;;14.80;77.00;;;;;;9169801;19;20024;-67
2023/10/09 00:24:46;;;;;;;15.13;4.65;;;14.80;77.10;;;;;;9167974;19;20011;-68
2023/10/09 00:27:51;;;;;;;13.55;4.47;;;14.80;77.10;;;;;;9167070;19;20042;-65
2023/10/09 00:31:00;;;;;;;10.55;4.82;;;14.80;77.20;;;;;;9165399;19;20378;-69
2023/10/09 00:34:14;;;;;;;11.45;5.05;;;14.80;77.20;;;;;;9167182;19;20010;-64
2023/10/09 00:37:23;;;;;;;;;;;14.80;77.30;;;;;;9165106;19;20010;-64
2023/10/09 00:40:45;;;;;;;16.88;5.80;;;14.80;77.30;;;;;;9168402;19;19922;-66
2023/10/09 00:43:53;;;;;;;15.15;5.72;;;14.80;77.40;;;;;;9167622;19;20021;-66
2023/10/09 00:47:08;;;;;;;13.20;6.20;;;14.80;77.40;;;;;;9166925;19;20011;-66
2023/10/09 00:50:21;;;;;;;14.15;6.00;;;14.80;77.50;;;;;;9167115;19;20010;-69
2023/10/09 00:53:30;;;;;;;21.23;6.50;;;14.80;77.50;;;;;;9166863;19;20017;-65
2023/10/09 00:56:43;;;;;;;11.80;5.57;;;14.80;77.60;;;;;;9166978;19;20015;-65
2023/10/09 00:59:59;;;;;;;18.35;6.63;;;14.80;77.70;;;;;;9167455;19;20047;-65
2023/10/09 01:03:19;;;;;;;17.42;5.70;;;14.90;77.70;;;;;;9168473;19;20495;-65
2023/10/09 01:06:28;;;;;;;12.45;6.13;;;14.90;77.80;;;;;;9164036;19;20052;-67
2023/10/09 01:09:37;;;;;;;20.35;7.32;;;14.90;77.80;;;;;;9167631;19;20018;-66
2023/10/09 01:12:53;;;;;;;16.00;6.43;;;14.90;77.80;;;;;;9165572;19;20451;-65
2023/10/09 01:16:07;;;;;;;22.08;7.53;;;14.90;78.00;;;;;;9168034;19;20015;-67
2023/10/09 01:19:23;;;;;;;20.92;7.50;;;14.90;78.00;;;;;;9166686;19;20034;-69
2023/10/09 01:22:36;;;;;;;18.30;7.25;;;14.90;78.00;;;;;;9165725;19;20074;-68
2023/10/09 01:25:45;;;;;;;18.17;8.20;;;14.90;78.00;;;;;;9166160;19;20010;-67
2023/10/09 01:28:57;;;;;;;19.50;7.85;;;15.00;78.10;;;;;;9164958;19;20015;-68
2023/10/09 01:32:03;;;;;;;22.85;8.57;;;15.00;78.20;;;;;;9166796;19;20055;-67
2023/10/09 01:35:21;;;;;;;19.40;8.75;;;15.00;78.20;;;;;;9164998;19;20476;-66
2023/10/09 01:38:33;;;;;;;20.08;8.80;;;15.00;78.20;;;;;;9163328;19;20030;-66
2023/10/09 01:41:51;;;;;;;17.48;8.93;;;15.00;78.30;;;;;;9162404;19;20384;-66
2023/10/09 01:44:58;;;;;;;27.77;9.45;;;15.00;78.40;;;;;;9165448;19;20056;-67
2023/10/09 01:48:08;;;;;;;19.65;9.57;;;15.00;78.40;;;;;;9164696;19;20078;-68
2023/10/09 01:51:17;;;;;;;26.42;9.30;;;15.00;78.40;;;;;;9163521;19;20754;-68
2023/10/09 01:54:36;;;;;;;23.85;10.43;;;15.10;78.60;;;;;;9164372;19;20017;-67
2023/10/09 01:57:45;;;;;;;24.90;10.90;;;15.10;78.50;;;;;;9165887;19;20052;-65
2023/10/09 02:00:55;;;;;;;30.67;12.38;;;15.10;78.60;;;;;;9164143;19;20605;-64
2023/10/09 02:04:06;;;;;;;27.13;11.00;;;15.10;79.30;;;;;;9165494;19;20086;-67
2023/10/09 02:07:14;;;;;;;25.48;11.27;;;15.10;78.80;;;;;;9161041;19;20095;-69
2023/10/09 02:10:25;;;;;;;25.80;11.40;;;15.10;78.80;;;;;;9162702;19;20530;-64
2023/10/09 02:13:41;;;;;;;27.90;12.65;;;15.10;78.80;;;;;;9164492;19;20396;-65
2023/10/09 02:17:02;;;;;;;28.65;12.38;;;15.10;78.90;;;;;;9164281;19;20018;-67
2023/10/09 02:20:28;;;;;;;27.75;12.70;;;15.20;80.60;;;;;;9164023;19;20021;-66
2023/10/09 02:23:40;;;;;;;28.05;13.35;;;15.20;79.00;;;;;;9163411;19;20045;-67
2023/10/09 02:30:19;;;;;;;28.13;14.48;;;15.20;79.10;;;;;;9164189;19;20014;-66
2023/10/09 02:33:30;;;;;;;37.03;13.27;;;15.20;79.20;;;;;;9165057;19;20033;-72
2023/10/09 02:36:41;;;;;;;38.92;15.25;;;15.20;79.10;;;;;;9161530;19;20018;-67
2023/10/09 02:39:52;;;;;;;29.83;14.75;;;15.20;79.30;;;;;;9164291;19;20014;-67
2023/10/09 02:42:58;;;;;;;31.55;14.85;;;15.20;79.30;;;;;;9164004;19;20026;-68
2023/10/09 02:46:14;;;;;;;33.85;16.00;;;15.20;79.30;;;;;;9161633;19;20044;-67
2023/10/09 02:49:21;;;;;;;39.85;16.48;;;15.30;79.50;;;;;;9163656;19;20022;-65
2023/10/09 02:52:34;;;;;;;43.97;17.35;;;15.30;79.40;;;;;;9170046;19;20014;-67
2023/10/09 02:55:41;;;;;;;34.65;16.08;;;15.30;79.50;;;;;;9169812;19;20446;-66
2023/10/09 02:58:48;;;;;;;40.63;17.42;;;15.30;79.50;;;;;;9167497;19;20013;-66
2023/10/09 03:01:57;;;;;;;40.55;17.63;;;15.30;79.50;;;;;;9172173;19;20029;-65
2023/10/09 03:05:05;;;;;;;43.85;18.00;;;15.40;79.70;;;;;;9170361;19;20479;-65
2023/10/09 03:08:12;;;;;;;46.22;18.15;;;15.40;79.70;;;;;;9169436;19;20018;-67
2023/10/09 03:11:19;;;;;;;47.80;16.75;;;15.40;79.70;;;;;;9171550;19;20022;-70
2023/10/09 03:14:26;;;;;;;41.58;18.05;;;15.40;79.80;;;;;;9171954;19;20384;-70
2023/10/09 03:17:36;;;;;;;42.17;16.77;;;15.40;79.80;;;;;;9166583;19;20053;-66
2023/10/09 03:20:44;;;;;;;37.47;16.63;;;15.40;79.90;;;;;;9170207;19;20436;-68
2023/10/09 03:23:52;;;;;;;47.65;17.05;;;15.50;80.00;;;;;;9168373;19;20013;-68
2023/10/09 03:26:58;;;;;;;42.28;17.45;;;15.50;80.10;;;;;;9168335;19;20558;-67
2023/10/09 03:30:10;;;;;;;41.97;17.15;;;15.50;80.00;;;;;;9169950;19;20644;-68
2023/10/09 03:33:18;;;;;;;39.85;17.08;;;15.50;80.00;;;;;;9168201;19;20021;-71
2023/10/09 03:36:26;;;;;;;40.75;17.45;;;15.50;80.10;;;;;;9165565;19;20010;-68
2023/10/09 03:39:38;;;;;;;37.22;16.52;;;15.60;80.20;;;;;;9168812;19;20360;-68
2023/10/09 03:42:46;;;;;;;;;;;15.50;80.10;;;;;;9171790;19;20616;-69
2023/10/09 03:45:52;;;;;;;38.55;17.17;;;15.60;80.00;;;;;;9167542;19;19927;-64
2023/10/09 03:49:10;;;;;;;38.22;16.23;;;15.60;80.00;;;;;;9168069;19;20013;-67
2023/10/09 03:52:17;;;;;;;47.17;17.98;;;15.60;80.20;;;;;;9171958;19;20018;-64
2023/10/09 03:55:27;;;;;;;35.28;16.55;;;15.60;80.20;;;;;;9169928;19;20011;-65
2023/10/09 03:58:34;;;;;;;38.90;17.35;;;15.60;80.20;;;;;;9167097;19;20510;-67
2023/10/09 04:01:43;;;;;;;38.10;17.10;;;15.60;80.30;;;;;;9168481;19;20014;-66
2023/10/09 04:04:51;;;;;;;38.65;17.20;;;15.60;80.30;;;;;;9167725;19;20059;-67
2023/10/09 04:08:02;;;;;;;40.13;16.92;;;15.70;80.50;;;;;;9164780;19;20356;-68
2023/10/09 04:11:15;;;;;;;37.13;17.13;;;15.70;80.40;;;;;;9166638;19;20023;-68
2023/10/09 04:14:26;;;;;;;47.28;19.33;;;15.70;80.50;;;;;;9163777;19;20447;-68
2023/10/09 04:17:35;;;;;;;39.00;17.55;;;15.70;80.50;;;;;;9168991;19;20011;-68
2023/10/09 04:24:22;;;;;;;40.63;17.38;;;15.80;80.70;;;;;;9169324;19;20019;-66
2023/10/09 04:27:36;;;;;;;38.05;16.67;;;15.80;80.70;;;;;;9168911;19;20019;-65
2023/10/09 04:30:46;;;;;;;40.92;17.17;;;15.80;80.70;;;;;;9168287;19;20019;-67
2023/10/09 04:34:21;;;;;;;40.58;18.55;;;15.80;80.70;;;;;;9170109;19;20021;-67
2023/10/09 04:37:36;;;;;;;42.85;18.23;;;15.80;80.80;;;;;;9163355;19;20021;-65
2023/10/09 04:40:48;;;;;;;38.47;17.48;;;15.80;80.90;;;;;;9167923;19;20014;-70
2023/10/09 04:43:51;;;;;;;44.78;18.25;;;15.80;80.80;;;;;;9168328;19;20022;-69
2023/10/09 04:53:47;;;;;;;46.53;18.67;;;15.90;81.00;;;;;;9167306;19;20017;-66
2023/10/09 04:56:56;;;;;;;42.15;17.80;;;15.90;81.10;;;;;;9168200;19;20021;-66
2023/10/09 05:00:06;;;;;;;36.60;17.35;;;15.90;81.10;;;;;;9165555;19;20107;-66
2023/10/09 05:03:24;;;;;;;47.33;17.80;;;16.00;81.10;;;;;;9166980;19;20498;-65
2023/10/09 05:06:54;;;;;;;40.33;18.80;;;16.00;81.20;;;;;;9165445;19;20021;-68
2023/10/09 05:10:15;;;;;;;42.55;19.15;;;16.00;81.30;;;;;;9163578;19;20398;-65
2023/10/09 05:13:42;;;;;;;39.92;17.38;;;16.00;81.40;;;;;;9164655;19;20030;-67
2023/10/09 05:17:01;;;;;;;35.97;16.40;;;16.00;81.30;;;;;;9168205;19;20022;-64
2023/10/09 05:23:28;;;;;;;35.97;17.70;;;16.10;81.40;;;;;;9168111;19;20011;-65
2023/10/09 05:26:50;;;;;;;40.40;17.70;;;16.10;81.40;;;;;;9167684;19;20007;-69
2023/10/09 05:29:59;;;;;;;35.83;17.48;;;16.10;81.50;;;;;;9166960;19;20014;-66
2023/10/09 05:40:10;;;;;;;38.20;17.73;;;16.20;81.60;;;;;;9164291;19;20025;-67
2023/10/09 05:44:55;;;;;;;40.45;17.75;;;16.20;81.70;;;;;;9164657;19;20024;-66
2023/10/09 05:47:22;;;;;;;35.80;16.63;;;16.30;81.80;;;;;;9165749;19;20017;-66
2023/10/09 05:54:11;;;;;;;42.75;17.67;;;16.30;81.70;;;;;;9166102;19;20022;-67
2023/10/09 05:58:09;;;;;;;37.20;17.20;;;16.30;81.70;;;;;;9166982;19;20022;-66
2023/10/09 06:04:11;;;;;;;36.55;16.33;;;16.40;81.80;;;;;;9163788;19;20402;-68
2023/10/09 06:07:23;;;;;;;39.72;17.80;;;16.30;81.80;;;;;;9163048;19;20025;-68
2023/10/09 06:10:39;;;;;;;32.50;16.00;;;16.40;81.90;;;;;;9161412;19;20017;-68
2023/10/09 06:13:48;;;;;;;34.75;17.13;;;16.40;82.00;;;;;;9160136;19;20021;-66
2023/10/09 06:17:15;;;;;;;38.10;17.85;;;16.40;81.90;;;;;;9161052;19;20395;-71
2023/10/09 06:24:08;;;;;;;43.50;18.10;;;16.40;82.00;;;;;;9162691;19;20506;-68
2023/10/09 06:27:24;;;;;;;42.55;18.05;;;16.50;82.00;;;;;;9168220;19;20045;-66
2023/10/09 06:30:34;;;;;;;41.03;17.20;;;16.00;81.80;;;;;;9171473;19;20848;-66
2023/10/09 06:34:07;;;;;;;41.97;16.90;;;16.50;82.10;;;;;;9173515;19;20014;-68
2023/10/09 06:37:17;;;;;;;39.00;16.65;;;16.50;82.30;;;;;;9168911;19;20103;-65
2023/10/09 06:43:53;;;;;;;41.20;16.23;;;16.50;82.20;;;;;;9172990;19;20372;-67
2023/10/09 06:47:07;;;;;;;39.92;17.00;;;16.60;82.30;;;;;;9174561;19;20029;-67
2023/10/09 06:50:24;;;;;;;40.47;17.63;;;16.60;82.40;;;;;;9169754;19;20783;-65
2023/10/09 06:53:58;;;;;;;35.75;15.63;;;16.60;82.50;;;;;;9172823;19;20786;-65
2023/10/09 06:57:13;;;;;;;34.95;15.90;;;16.60;82.40;;;;;;9172147;19;20015;-65
2023/10/09 07:03:51;;;;;;;42.33;15.82;;;16.60;82.60;;;;;;9171691;19;20468;-68
2023/10/09 07:07:01;;;;;;;28.23;14.35;;;16.70;82.60;;;;;;9171760;19;20017;-65
2023/10/09 07:13:29;;;;;;;35.90;15.95;;;16.70;82.70;;;;;;9174118;19;20106;-66
2023/10/09 07:16:38;;;;;;;39.22;15.73;;;16.70;82.70;;;;;;9171861;19;20017;-68
2023/10/09 07:20:08;;;;;;;37.25;14.68;;;16.80;82.80;;;;;;9171870;19;20019;-68
2023/10/09 07:23:17;;;;;;;27.77;14.20;;;16.80;82.90;;;;;;9171241;19;20019;-65
2023/10/09 07:26:36;;;;;;;29.50;14.38;;;16.80;82.80;;;;;;9172075;19;20007;-68
2023/10/09 07:29:50;;;;;;;33.67;14.73;;;16.90;82.90;;;;;;9169103;19;20479;-66
2023/10/09 07:33:05;;;;;;;30.40;14.40;;;16.90;82.90;;;;;;9174506;19;20021;-66
2023/10/09 07:36:13;;;;;;;40.05;15.15;;;16.90;83.00;;;;;;9165926;19;20011;-69
2023/10/09 07:39:24;;;;;;;30.30;14.02;;;16.90;82.90;;;;;;9170972;19;20026;-68
2023/10/09 07:42:33;;;;;;;31.27;15.18;;;17.00;83.10;;;;;;9169756;19;20376;-66
2023/10/09 07:49:12;;;;;;;37.40;15.02;;;17.00;83.10;;;;;;9169353;19;20050;-67
2023/10/09 07:52:21;;;;;;;29.88;14.70;;;17.00;83.10;;;;;;9170569;19;20054;-65
2023/10/09 07:55:39;;;;;;;31.52;14.88;;;17.10;83.10;;;;;;9171117;19;20011;-65
2023/10/09 07:58:49;;;;;;;34.65;15.27;;;17.10;83.20;;;;;;9171365;19;20014;-66
2023/10/09 08:01:59;;;;;;;29.58;14.18;;;17.10;83.20;;;;;;9171439;19;20018;-67
2023/10/09 08:05:18;;;;;;;34.60;13.80;;;17.10;83.10;;;;;;9171165;19;20419;-70
2023/10/09 08:12:13;;;;;;;32.30;13.68;;;17.20;83.20;;;;;;9169272;19;20363;-67
2023/10/09 08:15:26;;;;;;;30.10;13.18;;;17.20;83.20;;;;;;9171234;19;20486;-67
2023/10/09 08:18:44;;;;;;;28.65;12.30;;;17.20;83.10;;;;;;9169775;19;20006;-67
2023/10/09 08:22:17;;;;;;;27.90;13.60;;;17.20;83.20;;;;;;9171127;19;20607;-68
2023/10/09 08:25:29;;;;;;;26.70;12.95;;;17.30;83.20;;;;;;9169151;19;20022;-66
2023/10/09 08:28:42;;;;;;;27.73;13.25;;;17.30;83.20;;;;;;9171751;19;20246;-66
2023/10/09 08:31:56;;;;;;;31.65;14.85;;;17.30;83.70;;;;;;9169151;19;20014;-66
2023/10/09 08:34:59;;;;;;;26.90;13.40;;;17.30;83.30;;;;;;9171116;19;20029;-69
2023/10/09 08:38:10;;;;;;;33.75;13.98;;;17.30;83.50;;;;;;9167105;19;20356;-69
2023/10/09 08:41:19;;;;;;;33.80;14.20;;;17.40;83.40;;;;;;9165820;19;20074;-69
2023/10/09 08:44:32;;;;;;;26.38;12.95;;;17.40;83.40;;;;;;9164247;19;20025;-65
2023/10/09 08:47:38;;;;;;;32.05;13.75;;;17.40;83.50;;;;;;9167857;19;20022;-67
2023/10/09 08:50:49;;;;;;;30.77;13.73;;;17.40;83.50;;;;;;9169448;19;20644;-70
2023/10/09 08:53:55;;;;;;;26.00;13.75;;;17.50;83.60;;;;;;9171853;19;20019;-66
2023/10/09 08:57:02;;;;;;;30.35;13.32;;;17.50;83.60;;;;;;9165822;19;20014;-70
2023/10/09 09:00:21;;;;;;;26.85;12.57;;;17.60;83.80;;;;;;9168820;19;20472;-66
2023/10/09 09:03:31;;;;;;;30.25;13.25;;;17.60;83.80;;;;;;9166411;19;20011;-66
2023/10/09 09:06:41;;;;;;;31.50;12.38;;;17.60;83.80;;;;;;9166284;19;20037;-65
2023/10/09 09:10:03;;;;;;;31.92;13.13;;;17.70;83.90;;;;;;9165393;19;20014;-68
2023/10/09 09:13:18;;;;;;;23.13;11.35;;;17.70;83.90;;;;;;9166438;19;20025;-69
2023/10/09 09:16:29;;;;;;;29.48;12.68;;;17.80;83.80;;;;;;9169984;19;20018;-67
2023/10/09 09:19:37;;;;;;;36.05;13.27;;;17.80;83.80;;;;;;9168841;19;20712;-67
2023/10/09 09:22:56;;;;;;;27.70;12.63;;;17.90;83.80;;;;;;9165141;19;20018;-66
2023/10/09 09:26:11;;;;;;;27.83;11.75;;;18.00;84.00;;;;;;9167247;19;20013;-69
2023/10/09 09:29:19;;;;;;;26.52;11.77;;;18.00;83.80;;;;;;9168687;19;20590;-68
2023/10/09 09:32:35;;;;;;;26.90;13.43;;;18.00;83.80;;;;;;9168346;19;20026;-66
2023/10/09 09:35:42;;;;;;;24.35;10.20;;;18.10;83.90;;;;;;9163947;19;20052;-68
2023/10/09 09:38:51;;;;;;;24.95;10.75;;;18.10;83.90;;;;;;9164278;19;20022;-71
2023/10/09 09:42:03;;;;;;;30.83;11.38;;;18.10;83.80;;;;;;9163200;19;20021;-69
2023/10/09 09:45:13;;;;;;;21.17;10.80;;;18.20;83.90;;;;;;9166102;19;20020;-69
2023/10/09 09:48:23;;;;;;;22.55;10.38;;;18.20;83.90;;;;;;9164446;19;20060;-66
2023/10/09 09:51:32;;;;;;;27.42;10.73;;;18.20;83.90;;;;;;9162994;19;20702;-70
2023/10/09 09:54:38;;;;;;;22.00;9.73;;;18.30;83.90;;;;;;9166439;19;20246;-69
2023/10/09 09:57:51;;;;;;;26.60;9.88;;;18.30;83.90;;;;;;9167080;19;20011;-66
2023/10/09 10:01:08;;;;;;;25.83;11.68;;;18.40;84.00;;;;;;9174041;19;20021;-67
2023/10/09 10:04:23;;;;;;;35.45;10.23;;;18.40;84.10;;;;;;9173955;19;20526;-68
2023/10/09 10:07:31;;;;;;;20.98;9.23;;;18.40;84.00;;;;;;9176507;19;20056;-66
2023/10/09 10:10:47;;;;;;;18.20;8.40;;;18.50;84.00;;;;;;9173456;19;20022;-66
2023/10/09 10:14:06;;;;;;;23.70;8.95;;;18.50;84.00;;;;;;9172672;19;20031;-66
2023/10/09 10:17:21;;;;;;;23.58;8.00;;;18.60;84.10;;;;;;9175509;19;20014;-67
2023/10/09 10:20:31;;;;;;;20.00;8.23;;;18.60;83.90;;;;;;9173064;19;20021;-70
2023/10/09 10:23:40;;;;;;;24.17;8.05;;;18.70;84.00;;;;;;9175614;19;20103;-67
2023/10/09 10:26:45;;;;;;;25.33;8.07;;;19.30;84.20;;;;;;9174131;19;20055;-68
2023/10/09 10:30:24;;;;;;;25.08;8.70;;;18.80;83.80;;;;;;9174283;19;20242;-67
2023/10/09 10:33:53;;;;;;;17.27;7.88;;;18.80;83.80;;;;;;9174829;19;20018;-66
2023/10/09 10:37:07;;;;;;;23.98;8.07;;;18.80;83.70;;;;;;9169154;19;20006;-67
2023/10/09 10:40:37;;;;;;;23.38;7.20;;;18.90;83.70;;;;;;9173094;19;20022;-67
2023/10/09 10:47:02;;;;;;;20.85;7.60;;;18.90;83.60;;;;;;9176958;19;20090;-69
2023/10/09 10:50:35;;;;;;;17.85;7.40;;;19.00;83.50;;;;;;9173500;19;20507;-67
2023/10/09 10:54:26;;;;;;;21.35;7.40;;;19.00;83.50;;;;;;9173063;19;20371;-66
2023/10/09 10:57:28;;;;;;;22.95;8.20;;;19.10;83.60;;;;;;9171924;19;20015;-67
2023/10/09 11:04:08;;;;;;;24.67;6.93;;;19.10;83.40;;;;;;9172849;19;20022;-71
2023/10/09 11:07:16;;;;;;;19.15;6.53;;;19.20;83.30;;;;;;9173634;19;20014;-68
2023/10/09 11:10:31;;;;;;;19.67;6.28;;;19.20;83.40;;;;;;9174144;19;20118;-67
2023/10/09 11:13:52;;;;;;;23.80;8.15;;;19.20;83.30;;;;;;9172395;19;20107;-72
2023/10/09 11:17:03;;;;;;;21.33;6.35;;;19.30;83.30;;;;;;9173797;19;20015;-67
2023/10/09 11:23:37;;;;;;;24.55;6.75;;;19.30;83.10;;;;;;9171267;19;20014;-68
2023/10/09 11:26:53;;;;;;;14.65;6.55;;;19.30;83.00;;;;;;9172740;19;20029;-67
2023/10/09 11:30:14;;;;;;;13.13;6.18;;;19.40;83.00;;;;;;9171035;19;20017;-67
2023/10/09 11:33:21;;;;;;;15.70;6.10;;;19.40;83.60;;;;;;9169288;19;20390;-67
2023/10/09 11:36:32;;;;;;;23.23;5.40;;;19.40;82.90;;;;;;9167472;19;20026;-68
2023/10/09 11:39:36;;;;;;;19.90;6.50;;;19.40;82.90;;;;;;9172488;19;20590;-67
2023/10/09 11:42:49;;;;;;;15.80;5.50;;;19.50;83.70;;;;;;9171595;19;20720;-71
2023/10/09 11:45:57;;;;;;;19.75;5.53;;;19.40;83.00;;;;;;9170827;19;20033;-67
2023/10/09 11:52:47;;;;;;;17.65;5.85;;;19.50;83.00;;;;;;9171488;19;20642;-69
2023/10/09 11:55:54;;;;;;;;;;;19.60;83.00;;;;;;9174369;19;20239;-70
2023/10/09 11:59:05;;;;;;;23.17;5.55;;;19.60;82.90;;;;;;9171580;19;20332;-66
2023/10/09 12:02:13;;;;;;;23.15;6.47;;;19.70;82.90;;;;;;9170451;19;20022;-67
2023/10/09 12:05:19;;;;;;;19.20;5.47;;;19.70;83.00;;;;;;9173397;19;20026;-69
2023/10/09 12:08:29;;;;;;;21.20;5.60;;;19.80;82.90;;;;;;9170727;19;20400;-67
2023/10/09 12:11:34;;;;;;;18.38;5.03;;;19.80;82.90;;;;;;9171524;19;20015;-72
2023/10/09 12:14:44;;;;;;;13.10;4.70;;;19.80;82.70;;;;;;9169936;19;20014;-67
2023/10/09 12:17:53;;;;;;;21.08;5.63;;;19.80;82.50;;;;;;9168878;19;20354;-69
2023/10/09 12:21:04;;;;;;;20.83;4.88;;;19.90;82.50;;;;;;9167534;19;20021;-68
2023/10/09 12:24:12;;;;;;;18.48;5.22;;;19.30;82.10;;;;;;9169601;19;20018;-67
2023/10/09 12:27:20;;;;;;;14.02;5.07;;;19.90;82.40;;;;;;9168859;19;20015;-66
2023/10/09 12:30:29;;;;;;;14.55;4.93;;;19.90;82.40;;;;;;9172262;19;20785;-70
2023/10/09 12:33:39;;;;;;;19.48;5.65;;;19.90;82.30;;;;;;9167080;19;20015;-68
2023/10/09 12:36:47;;;;;;;15.57;5.72;;;19.90;82.30;;;;;;9164433;19;20011;-71
2023/10/09 12:39:56;;;;;;;16.75;5.50;;;19.90;82.30;;;;;;9166065;19;20030;-68
2023/10/09 12:43:02;;;;;;;17.67;5.32;;;19.90;82.30;;;;;;9167800;19;20038;-69
2023/10/09 12:46:16;;;;;;;19.17;5.18;;;19.90;82.30;;;;;;9167503;19;20568;-68
2023/10/09 12:49:24;;;;;;;20.60;5.68;;;19.90;82.30;;;;;;9166724;19;20380;-67
2023/10/09 12:52:36;;;;;;;22.65;5.95;;;19.90;82.30;;;;;;9166501;19;20023;-70
2023/10/09 12:55:43;;;;;;;18.05;6.05;;;19.90;82.40;;;;;;9165056;19;20048;-67
2023/10/09 12:58:56;;;;;;;17.25;5.55;;;19.90;82.40;;;;;;9166196;19;20014;-68
2023/10/09 13:02:05;;;;;;;10.93;5.07;;;20.00;82.50;;;;;;9167600;19;20480;-68
2023/10/09 13:05:25;;;;;;;23.58;6.63;;;20.10;82.50;;;;;;9166807;19;20022;-66
2023/10/09 13:08:35;;;;;;;15.93;5.63;;;20.10;82.60;;;;;;9166037;19;20007;-70
2023/10/09 13:11:43;;;;;;;19.33;6.75;;;20.20;82.50;;;;;;9162259;19;20022;-67
2023/10/09 13:14:49;;;;;;;21.83;6.47;;;20.30;82.60;;;;;;9166269;19;20022;-66
2023/10/09 13:18:06;;;;;;;14.50;4.82;;;20.30;82.50;;;;;;9165980;19;20391;-65
2023/10/09 13:21:12;;;;;;;16.50;5.35;;;20.40;82.30;;;;;;9166495;19;20022;-64
2023/10/09 13:24:24;;;;;;;20.45;4.93;;;20.40;82.20;;;;;;9162713;19;20018;-70
2023/10/09 13:27:34;;;;;;;12.85;4.85;;;20.50;82.10;;;;;;9163150;19;20014;-68
2023/10/09 13:30:49;;;;;;;10.10;4.82;;;20.50;82.00;;;;;;9162796;19;20018;-65
2023/10/09 13:33:59;;;;;;;16.92;5.05;;;20.60;82.00;;;;;;9160055;19;20060;-67
2023/10/09 13:37:11;;;;;;;17.83;4.90;;;20.60;81.80;;;;;;9157710;19;20021;-65
2023/10/09 13:40:26;;;;;;;18.10;5.82;;;20.70;81.80;;;;;;9163404;19;20010;-65
2023/10/09 13:43:34;;;;;;;14.90;4.38;;;20.70;81.70;;;;;;9164345;19;20022;-65
2023/10/09 13:46:41;;;;;;;16.30;4.10;;;20.70;81.70;;;;;;9160004;19;20387;-67
2023/10/09 13:49:53;;;;;;;12.95;4.55;;;20.80;81.70;;;;;;9164775;19;20014;-69
2023/10/09 13:52:59;;;;;;;17.15;4.40;;;20.80;81.50;;;;;;9161029;19;20886;-68
2023/10/09 13:56:06;;;;;;;19.95;4.82;;;20.80;81.40;;;;;;9163005;19;20018;-68
2023/10/09 13:59:12;;;;;;;13.30;3.75;;;20.90;81.40;;;;;;9164678;19;20021;-69
2023/10/09 14:02:21;;;;;;;15.20;3.97;;;20.90;81.30;;;;;;9162225;19;20022;-64
2023/10/09 14:05:29;;;;;;;10.70;3.65;;;20.90;81.30;;;;;;9161863;19;20021;-66
2023/10/09 14:08:41;;;;;;;16.52;4.68;;;20.90;81.20;;;;;;9160807;19;20015;-66
2023/10/09 14:11:50;;;;;;;10.10;3.90;;;20.90;81.10;;;;;;9158154;19;20102;-67
2023/10/09 14:14:58;;;;;;;12.88;3.92;;;20.90;81.10;;;;;;9158067;19;20484;-67
2023/10/09 14:18:08;;;;;;;12.90;4.22;;;20.90;81.20;;;;;;9159470;19;20023;-66
2023/10/09 14:21:18;;;;;;;14.02;4.28;;;20.90;80.80;;;;;;9157936;19;20297;-66
2023/10/09 14:24:32;;;;;;;8.93;3.30;;;20.90;80.80;;;;;;9160596;19;20019;-65
2023/10/09 14:27:40;;;;;;;14.18;4.13;;;20.80;80.70;;;;;;9162177;19;20041;-66
2023/10/09 14:30:50;;;;;;;17.65;4.75;;;20.80;80.70;;;;;;9159955;19;20026;-64
2023/10/09 14:33:58;;;;;;;11.05;4.30;;;20.80;80.70;;;;;;9156818;19;20614;-69
2023/10/09 14:37:06;;;;;;;14.52;4.53;;;20.80;80.70;;;;;;9156642;19;20684;-67
2023/10/09 14:40:20;;;;;;;25.17;4.18;;;20.80;80.70;;;;;;9159429;19;20022;-68
2023/10/09 14:43:28;;;;;;;19.00;4.95;;;20.80;80.60;;;;;;9157864;19;20048;-65
2023/10/09 14:46:35;;;;;;;13.82;4.85;;;20.70;80.60;;;;;;9161326;19;20022;-68
2023/10/09 14:49:46;;;;;;;10.27;3.90;;;20.70;80.50;;;;;;9168186;19;20047;-67
2023/10/09 14:52:57;;;;;;;12.85;4.43;;;20.70;80.60;;;;;;9165912;19;20403;-67
2023/10/09 14:56:08;;;;;;;10.48;4.10;;;20.70;80.70;;;;;;9168316;19;20402;-66
2023/10/09 14:59:19;;;;;;;17.40;4.15;;;20.60;82.90;;;;;;9169088;19;20019;-65
2023/10/09 15:02:24;;;;;;;15.15;4.45;;;20.60;80.60;;;;;;9170733;19;20070;-65
2023/10/09 15:05:33;;;;;;;10.43;3.75;;;20.60;80.60;;;;;;9170460;19;20107;-64
2023/10/09 15:08:41;;;;;;;19.60;4.25;;;20.60;80.70;;;;;;9171616;19;20472;-68
2023/10/09 15:11:49;;;;;;;15.35;4.53;;;20.60;80.70;;;;;;9170197;19;20017;-68
2023/10/09 15:14:56;;;;;;;10.57;4.13;;;20.50;80.60;;;;;;9170223;19;20480;-69
2023/10/09 15:18:05;;;;;;;10.88;3.67;;;20.50;80.60;;;;;;9173256;19;20015;-66
2023/10/09 15:21:11;;;;;;;16.73;3.97;;;20.50;80.70;;;;;;9172112;19;20014;-66
2023/10/09 15:24:22;;;;;;;14.23;4.65;;;20.50;80.70;;;;;;9175329;19;20353;-66
2023/10/09 15:27:28;;;;;;;14.10;3.78;;;20.50;80.70;;;;;;9173557;19;20019;-66
2023/10/09 15:30:37;;;;;;;13.00;3.80;;;20.40;80.60;;;;;;9171619;19;20018;-67
2023/10/09 15:33:44;;;;;;;16.58;4.50;;;20.40;81.20;;;;;;9171962;19;20766;-68
2023/10/09 15:36:53;;;;;;;14.55;3.83;;;20.40;81.20;;;;;;9164996;19;20022;-68
2023/10/09 15:40:04;;;;;;;17.17;4.28;;;20.30;83.40;;;;;;9171689;19;20010;-67
2023/10/09 15:43:13;;;;;;;10.02;4.38;;;20.30;80.80;;;;;;9172037;19;20022;-69
2023/10/09 15:46:19;;;;;;;19.58;4.50;;;20.40;80.70;;;;;;9173265;19;20022;-68
2023/10/09 15:49:31;;;;;;;13.13;4.10;;;20.30;80.60;;;;;;9167833;19;20026;-69
2023/10/09 15:52:37;;;;;;;12.13;4.60;;;20.30;80.70;;;;;;9169128;19;20370;-66
2023/10/09 15:55:51;;;;;;;22.75;5.82;;;20.30;80.70;;;;;;9167708;19;20007;-69
2023/10/09 15:58:57;;;;;;;14.25;4.32;;;20.30;82.90;;;;;;9169570;19;20025;-66
2023/10/09 16:02:05;;;;;;;16.85;4.80;;;20.20;80.80;;;;;;9173460;19;20416;-67
2023/10/09 16:05:12;;;;;;;13.15;4.35;;;20.20;80.80;;;;;;9170745;19;20018;-70
2023/10/09 16:08:22;;;;;;;18.70;4.70;;;20.20;80.90;;;;;;9168374;19;20352;-65
2023/10/09 16:11:33;;;;;;;17.33;4.28;;;20.20;80.80;;;;;;9167364;19;20469;-66
2023/10/09 16:14:41;;;;;;;11.87;4.33;;;20.20;80.90;;;;;;9161709;19;20396;-66
2023/10/09 16:17:58;;;;;;;12.70;4.82;;;20.20;80.90;;;;;;9160884;19;20027;-66
2023/10/09 16:21:08;;;;;;;13.82;4.25;;;20.10;80.80;;;;;;9162927;19;20015;-67
2023/10/09 16:24:15;;;;;;;24.63;5.45;;;20.10;80.90;;;;;;9162080;19;20010;-68
2023/10/09 16:27:27;;;;;;;16.92;4.68;;;20.10;80.90;;;;;;9161925;19;20050;-65
2023/10/09 16:30:32;;;;;;;21.13;5.57;;;20.10;80.90;;;;;;9162829;19;20018;-70
2023/10/09 16:33:40;;;;;;;20.48;5.03;;;20.10;81.70;;;;;;9159273;19;20015;-64
2023/10/09 16:36:45;;;;;;;14.23;5.53;;;20.10;80.90;;;;;;9153546;19;20026;-66
2023/10/09 16:39:58;;;;;;;19.45;4.88;;;20.10;81.00;;;;;;9159799;19;20133;-66
2023/10/09 16:43:13;;;;;;;13.10;4.70;;;20.00;80.90;;;;;;9159693;19;20019;-67
2023/10/09 16:46:22;;;;;;;19.15;4.82;;;20.00;80.90;;;;;;9158339;19;20025;-67
2023/10/09 16:49:30;;;;;;;21.83;5.82;;;20.00;80.90;;;;;;9157582;19;20042;-66
2023/10/09 16:52:38;;;;;;;18.48;5.93;;;20.00;80.90;;;;;;9160084;19;20011;-65
2023/10/09 16:55:44;;;;;;;17.17;5.03;;;20.00;81.00;;;;;;9155911;19;20028;-65
2023/10/09 16:58:54;;;;;;;20.67;5.50;;;20.00;81.40;;;;;;9159587;19;20014;-67
2023/10/09 17:02:00;;;;;;;11.38;4.80;;;19.90;81.00;;;;;;9157073;19;20374;-67
2023/10/09 17:05:09;;;;;;;17.92;5.50;;;19.90;81.00;;;;;;9157608;19;20458;-66
2023/10/09 17:08:15;;;;;;;13.02;4.63;;;19.90;81.00;;;;;;9155256;19;20022;-69
2023/10/09 17:11:24;;;;;;;22.25;5.38;;;19.90;81.00;;;;;;9156654;19;20029;-66
2023/10/09 17:14:34;;;;;;;18.75;5.30;;;19.90;81.10;;;;;;9157689;19;20078;-66
2023/10/09 17:17:42;;;;;;;17.42;5.68;;;19.90;81.20;;;;;;9152574;19;20025;-69
2023/10/09 17:20:51;;;;;;;16.33;5.35;;;19.80;81.10;;;;;;9154695;19;20011;-66
2023/10/09 17:23:59;;;;;;;17.90;6.03;;;19.90;81.20;;;;;;9149738;19;20923;-69
2023/10/09 17:27:08;;;;;;;21.52;5.50;;;19.80;81.20;;;;;;9160107;19;20018;-70